createdAt,value
2023-01-25T00:01:15.263Z,34.00
2023-01-25T00:06:20.951Z,31.20
2023-01-25T00:11:26.662Z,30.70
2023-01-25T00:16:33.164Z,24.80
2023-01-25T00:21:40.061Z,20.70
2023-01-25T00:26:46.858Z,22.80
2023-01-25T00:32:25.899Z,24.30
2023-01-25T00:37:39.080Z,22.60
2023-01-25T00:42:45.861Z,22.50
2023-01-25T00:47:56.493Z,25.70
2023-01-25T00:53:02.823Z,25.70
2023-01-25T00:58:09.005Z,27.30
2023-01-25T01:03:16.295Z,29.30
2023-01-25T01:08:26.482Z,22.00
2023-01-25T01:13:32.827Z,22.30
2023-01-25T01:18:42.603Z,23.50
2023-01-25T01:23:48.843Z,24.30
2023-01-25T01:28:54.955Z,21.10
2023-01-25T01:34:02.034Z,19.50
2023-01-25T01:39:08.729Z,19.00
2023-01-25T01:44:18.985Z,21.90
2023-01-25T01:49:32.850Z,19.70
2023-01-25T01:54:56.837Z,24.20
2023-01-25T02:00:07.497Z,17.10
2023-01-25T02:05:25.545Z,19.50
2023-01-25T02:10:32.917Z,20.40
2023-01-25T02:15:43.532Z,20.00
2023-01-25T02:20:51.674Z,20.70
2023-01-25T02:26:03.387Z,21.70
2023-01-25T02:31:09.387Z,21.50
2023-01-25T02:36:23.994Z,21.20
2023-01-25T02:41:38.289Z,23.30
2023-01-25T02:46:45.639Z,25.60
2023-01-25T02:51:57.382Z,25.60
2023-01-25T02:57:04.456Z,20.00
2023-01-25T03:02:18.672Z,20.30
2023-01-25T03:07:25.350Z,20.00
2023-01-25T03:12:31.453Z,22.50
2023-01-25T03:17:38.282Z,23.20
2023-01-25T03:22:44.615Z,22.00
2023-01-25T03:27:51.676Z,23.00
2023-01-25T03:32:59.004Z,24.30
2023-01-25T03:38:05.574Z,24.20
2023-01-25T03:43:13.208Z,22.10
2023-01-25T03:48:19.312Z,22.20
2023-01-25T03:53:30.937Z,20.90
2023-01-25T03:58:49.432Z,25.70
2023-01-25T04:03:57.143Z,25.10
2023-01-25T04:09:03.611Z,25.70
2023-01-25T04:14:20.906Z,24.40
2023-01-25T04:19:39.119Z,22.50
2023-01-25T04:24:48.996Z,26.40
2023-01-25T04:29:55.176Z,29.90
2023-01-25T04:35:03.585Z,32.70
2023-01-25T04:40:12.179Z,35.80
2023-01-25T04:45:22.702Z,36.10
2023-01-25T04:50:29.798Z,33.10
2023-01-25T04:55:37.094Z,36.30
2023-01-25T05:00:44.431Z,43.00
2023-01-25T05:05:50.720Z,45.70
2023-01-25T05:11:00.454Z,52.70
2023-01-25T05:16:25.897Z,45.30
2023-01-25T05:21:50.939Z,44.60
2023-01-25T05:27:03.799Z,50.10
2023-01-25T05:32:33.628Z,55.90
2023-01-25T05:37:40.201Z,60.80
2023-01-25T05:42:57.465Z,53.90
2023-01-25T05:48:04.132Z,61.40
2023-01-25T05:53:10.683Z,57.80
2023-01-25T05:58:16.941Z,61.70
2023-01-25T06:03:23.620Z,58.90
2023-01-25T06:08:30.504Z,54.10
2023-01-25T06:13:38.868Z,58.00
2023-01-25T06:18:45.571Z,60.90
2023-01-25T06:23:58.936Z,66.60
2023-01-25T06:29:07.090Z,63.70
2023-01-25T06:34:15.466Z,62.70
2023-01-25T06:39:21.467Z,59.70
2023-01-25T06:44:30.029Z,62.60
2023-01-25T06:49:36.231Z,59.80
2023-01-25T06:54:44.712Z,64.80
2023-01-25T07:00:02.073Z,61.30
2023-01-25T07:05:30.324Z,57.50
2023-01-25T07:10:36.916Z,61.10
2023-01-25T07:15:42.939Z,67.00
2023-01-25T07:20:49.207Z,62.00
2023-01-25T07:25:55.050Z,61.50
2023-01-25T07:31:07.567Z,63.70
2023-01-25T07:36:13.943Z,65.80
2023-01-25T07:41:19.736Z,69.20
2023-01-25T07:46:26.310Z,61.60
2023-01-25T07:51:32.182Z,68.50
2023-01-25T07:56:40.506Z,62.00
2023-01-25T08:01:46.473Z,63.00
2023-01-25T08:06:52.541Z,60.80
2023-01-25T08:11:58.425Z,64.10
2023-01-25T08:17:04.199Z,66.10
2023-01-25T08:22:10.867Z,58.80
2023-01-25T08:27:16.971Z,57.80
2023-01-25T08:32:23.095Z,63.30
2023-01-25T08:37:29.808Z,63.20
2023-01-25T08:42:35.817Z,59.00
2023-01-25T08:47:41.586Z,54.40
2023-01-25T08:52:47.443Z,60.00
2023-01-25T08:57:53.280Z,65.50
2023-01-25T09:02:59.656Z,66.90
2023-01-25T09:08:07.956Z,62.30
2023-01-25T09:13:14.435Z,58.70
2023-01-25T09:18:20.513Z,57.30
2023-01-25T09:23:26.941Z,64.10
2023-01-25T09:28:33.865Z,59.10
2023-01-25T09:33:41.577Z,59.30
2023-01-25T09:38:48.641Z,55.00
2023-01-25T09:44:17.880Z,55.40
2023-01-25T09:49:42.886Z,46.00
2023-01-25T09:54:50.387Z,52.90
2023-01-25T09:59:57.166Z,57.30
2023-01-25T10:05:09.055Z,59.00
2023-01-25T10:10:18.646Z,52.00
2023-01-25T10:15:29.028Z,49.10
2023-01-25T10:20:41.108Z,52.50
2023-01-25T10:25:52.965Z,56.20
2023-01-25T10:31:03.712Z,61.20
2023-01-25T10:36:15.672Z,55.90
2023-01-25T10:41:28.433Z,50.50
2023-01-25T10:46:35.032Z,52.60
2023-01-25T10:51:41.017Z,53.40
2023-01-25T10:56:47.728Z,64.70
2023-01-25T11:01:53.883Z,60.00
2023-01-25T11:07:00.848Z,57.10
2023-01-25T11:12:18.613Z,52.80
2023-01-25T11:17:31.830Z,54.20
2023-01-25T11:22:37.912Z,59.00
2023-01-25T11:27:43.580Z,57.50
2023-01-25T11:32:49.374Z,59.20
2023-01-25T11:38:10.364Z,63.80
2023-01-25T11:43:30.705Z,49.60
2023-01-25T11:48:52.644Z,57.40
2023-01-25T11:54:19.971Z,66.90
2023-01-25T11:59:48.348Z,66.90
2023-01-25T12:05:21.567Z,66.10
2023-01-25T12:10:38.592Z,55.70
2023-01-25T12:16:08.583Z,57.10
2023-01-25T12:21:31.367Z,59.60
2023-01-25T12:26:46.460Z,61.30
2023-01-25T12:31:58.538Z,61.20
2023-01-25T12:37:13.961Z,64.50
2023-01-25T12:42:26.686Z,56.90
2023-01-25T12:47:38.251Z,56.70
2023-01-25T12:52:49.327Z,56.80
2023-01-25T13:03:21.889Z,60.00
2023-01-25T13:08:44.105Z,61.70
2023-01-25T13:13:50.165Z,55.10
2023-01-25T13:18:56.301Z,57.10
2023-01-25T13:24:24.285Z,61.60
2023-01-25T13:30:09.064Z,60.50
2023-01-25T13:35:36.835Z,60.80
2023-01-25T13:40:43.331Z,63.30
2023-01-25T13:45:51.342Z,60.00
2023-01-25T13:51:03.469Z,59.90
2023-01-25T13:56:27.642Z,59.70
2023-01-25T14:01:35.837Z,67.70
2023-01-25T14:06:43.100Z,69.90
2023-01-25T14:11:54.724Z,66.90
2023-01-25T14:17:18.681Z,70.50
2023-01-25T14:22:27.361Z,61.50
2023-01-25T14:27:33.513Z,61.20
2023-01-25T14:32:41.601Z,67.80
2023-01-25T14:37:47.399Z,60.70
2023-01-25T14:42:54.841Z,67.60
2023-01-25T14:48:00.557Z,62.00
2023-01-25T14:53:16.126Z,55.80
2023-01-25T14:58:24.571Z,59.70
2023-01-25T15:03:31.715Z,66.80
2023-01-25T15:08:40.847Z,66.90
2023-01-25T15:13:46.929Z,65.80
2023-01-25T15:18:54.101Z,63.10
2023-01-25T15:24:06.628Z,56.90
2023-01-25T15:29:16.841Z,60.20
2023-01-25T15:34:26.338Z,61.50
2023-01-25T15:39:32.931Z,76.40
2023-01-25T15:44:38.630Z,82.30
2023-01-25T15:49:44.561Z,93.80
2023-01-25T15:55:00.037Z,69.50
2023-01-25T16:00:15.123Z,57.70
2023-01-25T16:05:20.997Z,58.40
2023-01-25T16:10:26.817Z,62.00
2023-01-25T16:15:32.829Z,65.30
2023-01-25T16:20:38.558Z,60.00
2023-01-25T16:25:47.602Z,55.30
2023-01-25T16:30:53.346Z,63.60
2023-01-25T16:36:12.702Z,67.50
2023-01-25T16:41:19.923Z,72.70
2023-01-25T16:46:26.235Z,62.00
2023-01-25T16:51:33.163Z,67.30
2023-01-25T16:56:38.773Z,59.60
2023-01-25T17:01:45.537Z,62.80
2023-01-25T17:06:53.196Z,63.40
2023-01-25T17:11:59.155Z,74.20
2023-01-25T17:17:05.428Z,65.90
2023-01-25T17:22:11.693Z,62.80
2023-01-25T17:27:17.790Z,66.60
2023-01-25T17:32:24.431Z,65.70
2023-01-25T17:37:30.165Z,69.10
2023-01-25T17:42:36.274Z,67.10
2023-01-25T17:47:41.982Z,68.70
2023-01-25T17:52:47.620Z,66.60
2023-01-25T17:57:53.662Z,68.60
2023-01-25T18:02:59.514Z,68.80
2023-01-25T18:08:06.189Z,64.40
2023-01-25T18:13:11.908Z,65.20
2023-01-25T18:18:17.947Z,64.20
2023-01-25T18:23:23.847Z,63.80
2023-01-25T18:28:29.642Z,66.80
2023-01-25T18:33:35.649Z,75.10
2023-01-25T18:38:41.417Z,65.70
2023-01-25T18:43:50.177Z,62.00
2023-01-25T18:48:56.023Z,84.70
2023-01-25T18:54:01.823Z,65.50
2023-01-25T18:59:07.568Z,76.20
2023-01-25T19:04:13.618Z,74.80
2023-01-25T19:09:19.232Z,65.70
2023-01-25T19:14:25.940Z,57.60
2023-01-25T19:19:33.759Z,63.90
2023-01-25T19:24:39.448Z,65.20
2023-01-25T19:29:45.288Z,67.10
2023-01-25T19:34:51.601Z,72.10
2023-01-25T19:39:57.472Z,72.50
2023-01-25T19:45:03.289Z,60.60
2023-01-25T19:50:12.446Z,70.30
2023-01-25T19:55:18.272Z,76.70
2023-01-25T20:00:24.932Z,78.50
2023-01-25T20:05:30.878Z,82.20
2023-01-25T20:10:37.270Z,68.40
2023-01-25T20:15:48.818Z,75.40
2023-01-25T20:21:00.465Z,68.70
2023-01-25T20:31:22.151Z,76.00
2023-01-25T20:36:29.717Z,64.40
2023-01-25T20:41:35.517Z,73.20
2023-01-25T20:46:42.365Z,84.10
2023-01-25T20:51:48.907Z,79.10
2023-01-25T20:56:54.708Z,84.00
2023-01-25T21:02:00.693Z,75.50
2023-01-25T21:07:06.864Z,69.20
2023-01-25T21:12:12.507Z,72.50
2023-01-25T21:17:18.257Z,76.60
2023-01-25T21:22:24.549Z,76.60
2023-01-25T21:27:30.852Z,80.20
2023-01-25T21:32:36.627Z,71.50
2023-01-25T21:37:44.333Z,68.40
2023-01-25T21:42:50.076Z,78.60
2023-01-25T21:48:00.453Z,80.10
2023-01-25T21:53:06.363Z,80.00
2023-01-25T21:58:12.023Z,81.70
2023-01-25T22:03:17.711Z,77.80
2023-01-25T22:08:23.443Z,69.50
2023-01-25T22:13:31.399Z,73.60
2023-01-25T22:18:38.862Z,68.40
2023-01-25T22:23:44.985Z,73.70
2023-01-25T22:28:52.100Z,76.90
2023-01-25T22:33:59.383Z,69.30
2023-01-25T22:39:05.498Z,69.30
2023-01-25T22:44:11.278Z,71.90
2023-01-25T22:49:16.977Z,78.10
2023-01-25T22:54:22.960Z,78.20
2023-01-25T22:59:28.897Z,80.40
2023-01-25T23:04:34.674Z,74.90
2023-01-25T23:09:41.098Z,73.40
2023-01-25T23:14:53.796Z,76.70
2023-01-25T23:19:59.396Z,85.40
2023-01-25T23:25:07.204Z,79.80
2023-01-25T23:30:14.440Z,87.60
2023-01-25T23:35:20.871Z,84.00
2023-01-25T23:40:26.559Z,83.50
2023-01-25T23:45:32.514Z,85.60
2023-01-25T23:50:38.160Z,89.10
2023-01-25T23:55:52.985Z,77.40
